Pagrindinis puslapis
METAR-TAF:

METAR-TAF

Oro uostai :

Providensijos sala, Kolumbija

platuma: 13-22N, ilguma: 081-21W, Aukštis: 6 m

Dabartinis oras

Ataskaita buvo paskelbta 55 minutes, ne 00:00 UTC
Vėjas 2 kt nuo kintamojo kryptimis
Temperatūra 25°C
Drėgmė 94%
Slėgis 1010 hPa
Matomumas 10 km arba daugiau
Mažai debesys ne aukštis 1500 ft
Išsisklaidę debesys ne aukštis 8000 ft

METAR: SKPV 230000Z VRB02KT 9999 FEW015 SCT080 25/24 A2983 RETSRA

Laikas: 19:55 (00:55 UTC)


TAF: trūkstamas

Orai ataskaitas ir orų prognozės (METAR, TAF).

turimą stotys yra geltonos ir raudonos taškus žemėlapyje.

Perkelti pele per norėdami pamatyti stoties vardą.

Tada spustelėkite, norėdami matyti oro stebėjimo ir prognozės.

Norėdami pakeisti žemėlapį: spustelėkite ant žalios mygtukų su juodo kryžiaus žemyn,; žalią mygtuką su brūkšneliu, jei norite nutolinti; arba žalių rodyklių gretimoms žemėlapius.


METAR-TAF: